sensor_id;sensor_type;location;lat;lon;timestamp;pressure;altitude;pressure_sealevel;temperature;humidity
48848;BME280;75039;51.970;5.660;2023-12-29T00:01:48;100736.38;;;14.65;54.86
48848;BME280;75039;51.970;5.660;2023-12-29T00:04:15;100730.00;;;14.66;54.78
48848;BME280;75039;51.970;5.660;2023-12-29T00:06:41;100723.59;;;14.67;54.75
48848;BME280;75039;51.970;5.660;2023-12-29T00:09:22;100715.06;;;14.71;54.85
48848;BME280;75039;51.970;5.660;2023-12-29T00:11:50;100720.31;;;14.73;54.56
48848;BME280;75039;51.970;5.660;2023-12-29T00:14:17;100717.63;;;14.73;54.46
48848;BME280;75039;51.970;5.660;2023-12-29T00:16:44;100717.63;;;14.73;54.52
48848;BME280;75039;51.970;5.660;2023-12-29T00:19:12;100706.81;;;14.73;54.70
48848;BME280;75039;51.970;5.660;2023-12-29T00:21:39;100712.22;;;14.73;54.60
48848;BME280;75039;51.970;5.660;2023-12-29T00:24:06;100695.00;;;14.74;54.65
48848;BME280;75039;51.970;5.660;2023-12-29T00:26:32;100709.66;;;14.71;54.94
48848;BME280;75039;51.970;5.660;2023-12-29T00:28:59;100704.38;;;14.70;54.94
48848;BME280;75039;51.970;5.660;2023-12-29T00:31:26;100698.25;;;14.68;55.04
48848;BME280;75039;51.970;5.660;2023-12-29T00:33:53;100677.63;;;14.67;55.12
48848;BME280;75039;51.970;5.660;2023-12-29T00:36:20;100682.31;;;14.65;55.26
48848;BME280;75039;51.970;5.660;2023-12-29T00:38:48;100701.53;;;14.61;55.14
48848;BME280;75039;51.970;5.660;2023-12-29T00:41:15;100688.00;;;14.61;55.23
48848;BME280;75039;51.970;5.660;2023-12-29T00:43:41;100699.81;;;14.60;54.86
48848;BME280;75039;51.970;5.660;2023-12-29T00:46:08;100685.44;;;14.60;55.47
48848;BME280;75039;51.970;5.660;2023-12-29T00:48:35;100691.00;;;14.58;54.87
48848;BME280;75039;51.970;5.660;2023-12-29T00:51:03;100680.91;;;14.60;55.18
48848;BME280;75039;51.970;5.660;2023-12-29T00:53:30;100683.59;;;14.60;55.16
48848;BME280;75039;51.970;5.660;2023-12-29T00:55:59;100668.38;;;14.59;54.86
48848;BME280;75039;51.970;5.660;2023-12-29T00:58:26;100656.56;;;14.60;54.84
48848;BME280;75039;51.970;5.660;2023-12-29T01:00:53;100669.09;;;14.61;55.07
48848;BME280;75039;51.970;5.660;2023-12-29T01:03:20;100660.97;;;14.61;55.03
48848;BME280;75039;51.970;5.660;2023-12-29T01:05:50;100677.91;;;14.63;55.29
48848;BME280;75039;51.970;5.660;2023-12-29T01:08:17;100677.91;;;14.63;55.01
48848;BME280;75039;51.970;5.660;2023-12-29T01:10:44;100672.50;;;14.63;55.22
48848;BME280;75039;51.970;5.660;2023-12-29T01:13:11;100665.41;;;14.62;54.92
48848;BME280;75039;51.970;5.660;2023-12-29T01:15:39;100657.28;;;14.62;55.26
48848;BME280;75039;51.970;5.660;2023-12-29T01:18:07;100655.44;;;14.63;55.31
48848;BME280;75039;51.970;5.660;2023-12-29T01:20:34;100651.75;;;14.64;55.33
48848;BME280;75039;51.970;5.660;2023-12-29T01:23:00;100656.28;;;14.63;55.47
48848;BME280;75039;51.970;5.660;2023-12-29T01:25:27;100652.88;;;14.61;54.99
48848;BME280;75039;51.970;5.660;2023-12-29T01:27:54;100659.28;;;14.60;55.32
48848;BME280;75039;51.970;5.660;2023-12-29T01:30:21;100662.97;;;14.59;55.38
48848;BME280;75039;51.970;5.660;2023-12-29T01:32:47;100655.84;;;14.58;55.55
48848;BME280;75039;51.970;5.660;2023-12-29T01:35:14;100667.66;;;14.57;55.25
48848;BME280;75039;51.970;5.660;2023-12-29T01:37:44;100656.84;;;14.57;55.65
48848;BME280;75039;51.970;5.660;2023-12-29T01:40:12;100655.28;;;14.55;55.36
48848;BME280;75039;51.970;5.660;2023-12-29T01:42:38;100653.44;;;14.55;55.62
48848;BME280;75039;51.970;5.660;2023-12-29T01:45:19;100660.69;;;14.55;55.46
48848;BME280;75039;51.970;5.660;2023-12-29T01:47:47;100656.13;;;14.55;55.67
48848;BME280;75039;51.970;5.660;2023-12-29T01:50:14;100646.31;;;14.54;55.69
48848;BME280;75039;51.970;5.660;2023-12-29T01:52:45;100658.97;;;14.54;55.93
48848;BME280;75039;51.970;5.660;2023-12-29T01:55:18;100656.13;;;14.55;55.49
48848;BME280;75039;51.970;5.660;2023-12-29T01:57:48;100654.44;;;14.54;55.85
48848;BME280;75039;51.970;5.660;2023-12-29T02:00:15;100658.97;;;14.54;55.59
48848;BME280;75039;51.970;5.660;2023-12-29T02:02:45;100656.56;;;14.51;55.60
48848;BME280;75039;51.970;5.660;2023-12-29T02:05:16;100661.09;;;14.50;55.89
48848;BME280;75039;51.970;5.660;2023-12-29T02:07:43;100671.19;;;14.48;55.81
48848;BME280;75039;51.970;5.660;2023-12-29T02:10:11;100675.75;;;14.48;55.58
48848;BME280;75039;51.970;5.660;2023-12-29T02:12:42;100660.53;;;14.47;56.13
48848;BME280;75039;51.970;5.660;2023-12-29T02:15:09;100672.31;;;14.46;55.78
48848;BME280;75039;51.970;5.660;2023-12-29T02:17:40;100662.50;;;14.45;55.92
48848;BME280;75039;51.970;5.660;2023-12-29T02:20:08;100651.84;;;14.43;56.35
48848;BME280;75039;51.970;5.660;2023-12-29T02:22:35;100671.84;;;14.41;56.15
48848;BME280;75039;51.970;5.660;2023-12-29T02:25:05;100661.19;;;14.39;56.22
48848;BME280;75039;51.970;5.660;2023-12-29T02:27:55;100655.19;;;14.36;56.24
48848;BME280;75039;51.970;5.660;2023-12-29T02:30:46;100658.19;;;14.32;56.24
48848;BME280;75039;51.970;5.660;2023-12-29T02:33:20;100655.63;;;14.31;56.33
48848;BME280;75039;51.970;5.660;2023-12-29T02:35:49;100638.69;;;14.29;56.86
48848;BME280;75039;51.970;5.660;2023-12-29T02:38:18;100645.22;;;14.26;56.76
48848;BME280;75039;51.970;5.660;2023-12-29T02:40:46;100654.47;;;14.24;56.62
48848;BME280;75039;51.970;5.660;2023-12-29T02:43:14;100649.34;;;14.21;56.70
48848;BME280;75039;51.970;5.660;2023-12-29T02:45:41;100649.34;;;14.21;56.86
48848;BME280;75039;51.970;5.660;2023-12-29T02:48:09;100644.06;;;14.19;57.14
48848;BME280;75039;51.970;5.660;2023-12-29T02:50:35;100645.91;;;14.19;57.28
48848;BME280;75039;51.970;5.660;2023-12-29T02:53:02;100649.47;;;14.19;57.00
48848;BME280;75039;51.970;5.660;2023-12-29T02:55:30;100649.47;;;14.19;57.29
48848;BME280;75039;51.970;5.660;2023-12-29T02:57:57;100643.22;;;14.19;57.12
48848;BME280;75039;51.970;5.660;2023-12-29T03:00:24;100618.06;;;14.18;57.40
48848;BME280;75039;51.970;5.660;2023-12-29T03:02:51;100648.63;;;14.19;57.28
48848;BME280;75039;51.970;5.660;2023-12-29T03:05:18;100644.19;;;14.18;57.46
48848;BME280;75039;51.970;5.660;2023-12-29T03:07:44;100644.91;;;14.20;57.20
48848;BME280;75039;51.970;5.660;2023-12-29T03:10:11;100637.81;;;14.19;57.67
48848;BME280;75039;51.970;5.660;2023-12-29T03:12:38;100622.31;;;14.21;57.23
48848;BME280;75039;51.970;5.660;2023-12-29T03:15:05;100629.44;;;14.22;57.35
48848;BME280;75039;51.970;5.660;2023-12-29T03:17:32;100632.84;;;14.24;57.25
48848;BME280;75039;51.970;5.660;2023-12-29T03:19:59;100650.63;;;14.26;57.33
48848;BME280;75039;51.970;5.660;2023-12-29T03:22:26;100636.97;;;14.28;57.47
48848;BME280;75039;51.970;5.660;2023-12-29T03:24:53;100625.31;;;14.27;57.12
48848;BME280;75039;51.970;5.660;2023-12-29T03:27:19;100637.56;;;14.31;57.05
48848;BME280;75039;51.970;5.660;2023-12-29T03:29:46;100638.28;;;14.34;57.36
48848;BME280;75039;51.970;5.660;2023-12-29T03:32:13;100667.13;;;14.33;56.97
48848;BME280;75039;51.970;5.660;2023-12-29T03:34:42;100642.81;;;14.33;57.22
48848;BME280;75039;51.970;5.660;2023-12-29T03:37:09;100641.13;;;14.32;57.13
48848;BME280;75039;51.970;5.660;2023-12-29T03:39:37;100632.03;;;14.33;56.94
48848;BME280;75039;51.970;5.660;2023-12-29T03:42:04;100639.13;;;14.34;57.06
48848;BME280;75039;51.970;5.660;2023-12-29T03:44:31;100620.22;;;14.34;57.18
48848;BME280;75039;51.970;5.660;2023-12-29T03:46:57;100630.75;;;14.37;57.05
48848;BME280;75039;51.970;5.660;2023-12-29T03:49:24;100632.47;;;14.38;57.16
48848;BME280;75039;51.970;5.660;2023-12-29T03:51:51;100647.81;;;14.38;56.88
48848;BME280;75039;51.970;5.660;2023-12-29T03:54:18;100633.44;;;14.37;57.16
48848;BME280;75039;51.970;5.660;2023-12-29T03:56:46;100640.97;;;14.34;57.14
48848;BME280;75039;51.970;5.660;2023-12-29T03:59:13;100641.84;;;14.34;56.72
48848;BME280;75039;51.970;5.660;2023-12-29T04:01:40;100629.31;;;14.33;57.01
48848;BME280;75039;51.970;5.660;2023-12-29T04:04:06;100629.31;;;14.33;56.78
48848;BME280;75039;51.970;5.660;2023-12-29T04:06:33;100640.13;;;14.33;56.79
48848;BME280;75039;51.970;5.660;2023-12-29T04:09:00;100620.34;;;14.32;56.93
48848;BME280;75039;51.970;5.660;2023-12-29T04:11:27;100630.19;;;14.34;56.76
48848;BME280;75039;51.970;5.660;2023-12-29T04:13:54;100637.28;;;14.35;56.96
48848;BME280;75039;51.970;5.660;2023-12-29T04:16:21;100633.59;;;14.36;56.64
48848;BME280;75039;51.970;5.660;2023-12-29T04:18:48;100633.59;;;14.36;56.54
48848;BME280;75039;51.970;5.660;2023-12-29T04:21:15;100651.66;;;14.35;56.75
48848;BME280;75039;51.970;5.660;2023-12-29T04:23:41;100622.78;;;14.36;56.45
48848;BME280;75039;51.970;5.660;2023-12-29T04:26:08;100626.19;;;14.38;56.19
48848;BME280;75039;51.970;5.660;2023-12-29T04:28:36;100637.16;;;14.36;56.20
48848;BME280;75039;51.970;5.660;2023-12-29T04:31:03;100629.03;;;14.36;56.38
48848;BME280;75039;51.970;5.660;2023-12-29T04:33:30;100638.13;;;14.35;56.43
48848;BME280;75039;51.970;5.660;2023-12-29T04:35:57;100634.44;;;14.36;56.17
48848;BME280;75039;51.970;5.660;2023-12-29T04:38:24;100625.63;;;14.34;56.46
48848;BME280;75039;51.970;5.660;2023-12-29T04:40:51;100630.19;;;14.34;56.09
48848;BME280;75039;51.970;5.660;2023-12-29T04:43:18;100621.94;;;14.35;56.21
48848;BME280;75039;51.970;5.660;2023-12-29T04:45:44;100634.44;;;14.36;56.32
48848;BME280;75039;51.970;5.660;2023-12-29T04:48:11;100650.66;;;14.36;56.32
48848;BME280;75039;51.970;5.660;2023-12-29T04:50:38;100639.72;;;14.38;56.04
48848;BME280;75039;51.970;5.660;2023-12-29T04:53:05;100656.78;;;14.38;56.44
48848;BME280;75039;51.970;5.660;2023-12-29T04:55:32;100639.72;;;14.38;56.43
48848;BME280;75039;51.970;5.660;2023-12-29T04:57:58;100645.13;;;14.38;56.04
48848;BME280;75039;51.970;5.660;2023-12-29T05:00:26;100654.06;;;14.38;56.25
48848;BME280;75039;51.970;5.660;2023-12-29T05:02:52;100651.38;;;14.38;56.38
48848;BME280;75039;51.970;5.660;2023-12-29T05:05:19;100648.66;;;14.38;55.99
48848;BME280;75039;51.970;5.660;2023-12-29T05:07:46;100649.66;;;14.37;56.24
48848;BME280;75039;51.970;5.660;2023-12-29T05:10:12;100646.97;;;14.37;56.16
48848;BME280;75039;51.970;5.660;2023-12-29T05:12:39;100642.56;;;14.36;56.02
48848;BME280;75039;51.970;5.660;2023-12-29T05:15:06;100648.94;;;14.35;55.78
48848;BME280;75039;51.970;5.660;2023-12-29T05:17:33;100636.44;;;14.34;56.08
48848;BME280;75039;51.970;5.660;2023-12-29T05:20:00;100628.47;;;14.32;55.98
48848;BME280;75039;51.970;5.660;2023-12-29T05:22:27;100635.56;;;14.34;55.87
48848;BME280;75039;51.970;5.660;2023-12-29T05:24:54;100642.97;;;14.31;55.68
48848;BME280;75039;51.970;5.660;2023-12-29T05:27:24;100639.41;;;14.31;55.71
48848;BME280;75039;51.970;5.660;2023-12-29T05:29:50;100656.59;;;14.30;56.03
48848;BME280;75039;51.970;5.660;2023-12-29T05:32:17;100642.25;;;14.29;56.09
48848;BME280;75039;51.970;5.660;2023-12-29T05:34:44;100647.94;;;14.26;55.67
48848;BME280;75039;51.970;5.660;2023-12-29T05:37:11;100656.88;;;14.27;55.92
48848;BME280;75039;51.970;5.660;2023-12-29T05:39:41;100665.13;;;14.25;55.82
48848;BME280;75039;51.970;5.660;2023-12-29T05:42:08;100636.41;;;14.24;55.89
48848;BME280;75039;51.970;5.660;2023-12-29T05:44:38;100647.34;;;14.23;56.04
48848;BME280;75039;51.970;5.660;2023-12-29T05:47:05;100641.94;;;14.23;56.07
48848;BME280;75039;51.970;5.660;2023-12-29T05:49:31;100648.34;;;14.22;55.71
48848;BME280;75039;51.970;5.660;2023-12-29T05:52:07;100667.38;;;14.20;55.69
48848;BME280;75039;51.970;5.660;2023-12-29T05:54:34;100640.38;;;14.20;56.11
48848;BME280;75039;51.970;5.660;2023-12-29T05:57:01;100651.19;;;14.20;55.68
48848;BME280;75039;51.970;5.660;2023-12-29T05:59:28;100640.50;;;14.19;56.00
48848;BME280;75039;51.970;5.660;2023-12-29T06:01:55;100628.00;;;14.18;56.08
48848;BME280;75039;51.970;5.660;2023-12-29T06:04:23;100639.78;;;14.17;56.10
48848;BME280;75039;51.970;5.660;2023-12-29T06:06:50;100639.94;;;14.15;55.81
48848;BME280;75039;51.970;5.660;2023-12-29T06:09:17;100634.66;;;14.14;55.96
48848;BME280;75039;51.970;5.660;2023-12-29T06:11:44;100632.22;;;14.11;56.17
48848;BME280;75039;51.970;5.660;2023-12-29T06:14:14;100631.34;;;14.10;56.31
48848;BME280;75039;51.970;5.660;2023-12-29T06:16:41;100636.88;;;14.09;56.18
48848;BME280;75039;51.970;5.660;2023-12-29T06:19:08;100636.88;;;14.09;55.85
48848;BME280;75039;51.970;5.660;2023-12-29T06:21:43;100644.28;;;14.07;56.11
48848;BME280;75039;51.970;5.660;2023-12-29T06:24:10;100635.31;;;14.06;56.14
48848;BME280;75039;51.970;5.660;2023-12-29T06:26:38;100629.06;;;14.06;56.06
48848;BME280;75039;51.970;5.660;2023-12-29T06:29:10;100631.75;;;14.06;56.20
48848;BME280;75039;51.970;5.660;2023-12-29T06:31:40;100640.00;;;14.04;56.35
48848;BME280;75039;51.970;5.660;2023-12-29T06:34:08;100630.06;;;14.05;56.37
48848;BME280;75039;51.970;5.660;2023-12-29T06:36:35;100622.81;;;14.05;56.13
48848;BME280;75039;51.970;5.660;2023-12-29T06:39:02;100641.72;;;14.05;56.37
48848;BME280;75039;51.970;5.660;2023-12-29T06:41:28;100636.16;;;14.07;56.15
48848;BME280;75039;51.970;5.660;2023-12-29T06:43:55;100643.41;;;14.06;56.47
48848;BME280;75039;51.970;5.660;2023-12-29T06:46:22;100644.28;;;14.07;56.20
48848;BME280;75039;51.970;5.660;2023-12-29T06:48:49;100639.72;;;14.07;56.62
48848;BME280;75039;51.970;5.660;2023-12-29T06:51:19;100655.06;;;14.07;56.64
48848;BME280;75039;51.970;5.660;2023-12-29T06:53:46;100666.59;;;14.09;56.39
48848;BME280;75039;51.970;5.660;2023-12-29T06:56:16;100662.78;;;14.11;56.71
48848;BME280;75039;51.970;5.660;2023-12-29T06:58:45;100667.44;;;14.09;56.75
48848;BME280;75039;51.970;5.660;2023-12-29T07:01:12;100648.81;;;14.06;56.78
48848;BME280;75039;51.970;5.660;2023-12-29T07:03:39;100649.22;;;14.02;57.09
48848;BME280;75039;51.970;5.660;2023-12-29T07:06:06;100656.75;;;13.98;57.05
48848;BME280;75039;51.970;5.660;2023-12-29T07:08:33;100644.66;;;13.92;57.21
48848;BME280;75039;51.970;5.660;2023-12-29T07:11:00;100645.06;;;13.88;57.43
48848;BME280;75039;51.970;5.660;2023-12-29T07:13:27;100641.91;;;13.83;57.39
48848;BME280;75039;51.970;5.660;2023-12-29T07:15:54;100650.41;;;13.78;57.72
48848;BME280;75039;51.970;5.660;2023-12-29T07:18:21;100638.88;;;13.76;57.64
48848;BME280;75039;51.970;5.660;2023-12-29T07:20:48;100641.00;;;13.73;57.73
48848;BME280;75039;51.970;5.660;2023-12-29T07:23:14;100641.13;;;13.71;58.03
48848;BME280;75039;51.970;5.660;2023-12-29T07:25:41;100640.41;;;13.69;58.21
48848;BME280;75039;51.970;5.660;2023-12-29T07:28:08;100636.13;;;13.66;58.25
48848;BME280;75039;51.970;5.660;2023-12-29T07:30:34;100627.31;;;13.64;58.10
48848;BME280;75039;51.970;5.660;2023-12-29T07:33:01;100631.88;;;13.64;58.50
48848;BME280;75039;51.970;5.660;2023-12-29T07:35:29;100637.41;;;13.62;58.38
48848;BME280;75039;51.970;5.660;2023-12-29T07:37:57;100649.19;;;13.61;58.60
48848;BME280;75039;51.970;5.660;2023-12-29T07:40:24;100650.28;;;13.59;58.58
48848;BME280;75039;51.970;5.660;2023-12-29T07:42:51;100637.94;;;13.56;58.72
48848;BME280;75039;51.970;5.660;2023-12-29T07:45:18;100638.06;;;13.55;58.80
48848;BME280;75039;51.970;5.660;2023-12-29T07:47:45;100642.59;;;13.54;58.92
48848;BME280;75039;51.970;5.660;2023-12-29T07:50:12;100652.53;;;13.54;58.83
48848;BME280;75039;51.970;5.660;2023-12-29T07:52:39;100646.41;;;13.52;59.08
48848;BME280;75039;51.970;5.660;2023-12-29T07:55:05;100647.41;;;13.51;59.32
48848;BME280;75039;51.970;5.660;2023-12-29T07:57:32;100646.56;;;13.50;59.48
48848;BME280;75039;51.970;5.660;2023-12-29T07:59:59;100643.84;;;13.50;59.75
48848;BME280;75039;51.970;5.660;2023-12-29T08:02:26;100641.16;;;13.50;59.58
48848;BME280;75039;51.970;5.660;2023-12-29T08:04:53;100646.56;;;13.50;59.55
48848;BME280;75039;51.970;5.660;2023-12-29T08:07:21;100624.13;;;13.50;59.49
48848;BME280;75039;51.970;5.660;2023-12-29T08:09:48;100635.75;;;13.50;59.83
48848;BME280;75039;51.970;5.660;2023-12-29T08:12:15;100650.25;;;13.49;59.91
48848;BME280;75039;51.970;5.660;2023-12-29T08:14:41;100649.50;;;13.47;59.66
48848;BME280;75039;51.970;5.660;2023-12-29T08:17:08;100655.91;;;13.46;59.91
48848;BME280;75039;51.970;5.660;2023-12-29T08:19:35;100655.03;;;13.46;59.80
48848;BME280;75039;51.970;5.660;2023-12-29T08:22:03;100652.22;;;13.47;60.02
48848;BME280;75039;51.970;5.660;2023-12-29T08:24:29;100651.09;;;13.50;60.13
48848;BME280;75039;51.970;5.660;2023-12-29T08:26:56;100654.50;;;13.52;60.18
48848;BME280;75039;51.970;5.660;2023-12-29T08:29:22;100651.69;;;13.53;60.11
48848;BME280;75039;51.970;5.660;2023-12-29T08:31:52;100659.66;;;13.55;60.18
48848;BME280;75039;51.970;5.660;2023-12-29T08:34:19;100657.66;;;13.57;60.50
48848;BME280;75039;51.970;5.660;2023-12-29T08:36:46;100657.53;;;13.58;60.17
48848;BME280;75039;51.970;5.660;2023-12-29T08:39:13;100667.34;;;13.59;60.14
48848;BME280;75039;51.970;5.660;2023-12-29T08:41:41;100658.25;;;13.60;60.41
48848;BME280;75039;51.970;5.660;2023-12-29T08:44:08;100658.97;;;13.62;60.31
48848;BME280;75039;51.970;5.660;2023-12-29T08:46:35;100661.69;;;13.62;60.31
48848;BME280;75039;51.970;5.660;2023-12-29T08:49:01;100660.56;;;13.65;60.61
48848;BME280;75039;51.970;5.660;2023-12-29T08:51:29;100646.06;;;13.66;60.50
48848;BME280;75039;51.970;5.660;2023-12-29T08:53:56;100638.69;;;13.68;60.38
48848;BME280;75039;51.970;5.660;2023-12-29T08:56:22;100642.13;;;13.70;60.40
48848;BME280;75039;51.970;5.660;2023-12-29T08:58:52;100635.59;;;13.73;60.32
48848;BME280;75039;51.970;5.660;2023-12-29T09:01:19;100636.47;;;13.73;60.40
48848;BME280;75039;51.970;5.660;2023-12-29T09:03:46;100653.38;;;13.75;60.17
48848;BME280;75039;51.970;5.660;2023-12-29T09:06:13;100668.56;;;13.76;60.27
48848;BME280;75039;51.970;5.660;2023-12-29T09:08:40;100668.31;;;13.79;60.33
48848;BME280;75039;51.970;5.660;2023-12-29T09:11:07;100686.22;;;13.80;60.52
48848;BME280;75039;51.970;5.660;2023-12-29T09:13:33;100675.41;;;13.80;60.45
48848;BME280;75039;51.970;5.660;2023-12-29T09:16:00;100673.44;;;13.82;60.41
48848;BME280;75039;51.970;5.660;2023-12-29T09:18:27;100682.25;;;13.84;60.25
48848;BME280;75039;51.970;5.660;2023-12-29T09:20:54;100650.59;;;13.86;60.15
48848;BME280;75039;51.970;5.660;2023-12-29T09:23:21;100670.34;;;13.87;60.50
48848;BME280;75039;51.970;5.660;2023-12-29T09:25:48;100665.66;;;13.89;60.53
48848;BME280;75039;51.970;5.660;2023-12-29T09:28:15;100680.72;;;13.91;60.30
48848;BME280;75039;51.970;5.660;2023-12-29T09:30:42;100679.75;;;13.92;60.19
48848;BME280;75039;51.970;5.660;2023-12-29T09:33:08;100685.00;;;13.94;60.43
48848;BME280;75039;51.970;5.660;2023-12-29T09:35:39;100678.47;;;13.96;60.27
48848;BME280;75039;51.970;5.660;2023-12-29T09:38:06;100687.31;;;13.98;60.10
48848;BME280;75039;51.970;5.660;2023-12-29T09:40:32;100679.91;;;14.00;60.31
48848;BME280;75039;51.970;5.660;2023-12-29T09:43:00;100686.91;;;14.03;60.06
48848;BME280;75039;51.970;5.660;2023-12-29T09:45:29;100688.59;;;14.04;59.94
48848;BME280;75039;51.970;5.660;2023-12-29T09:47:56;100684.78;;;14.07;60.09
48848;BME280;75039;51.970;5.660;2023-12-29T09:50:25;100690.03;;;14.08;59.99
48848;BME280;75039;51.970;5.660;2023-12-29T09:52:52;100696.16;;;14.10;59.92
48848;BME280;75039;51.970;5.660;2023-12-29T09:55:19;100694.22;;;14.12;60.12
48848;BME280;75039;51.970;5.660;2023-12-29T09:57:47;100692.22;;;14.14;59.73
48848;BME280;75039;51.970;5.660;2023-12-29T10:00:16;100699.22;;;14.17;59.93
48848;BME280;75039;51.970;5.660;2023-12-29T10:02:43;100692.69;;;14.19;59.79
48848;BME280;75039;51.970;5.660;2023-12-29T10:05:10;100706.06;;;14.21;59.70
48848;BME280;75039;51.970;5.660;2023-12-29T10:07:39;100690.56;;;14.23;59.56
48848;BME280;75039;51.970;5.660;2023-12-29T10:10:06;100706.63;;;14.24;59.85
48848;BME280;75039;51.970;5.660;2023-12-29T10:12:35;100704.66;;;14.26;59.95
48848;BME280;75039;51.970;5.660;2023-12-29T10:23:20;100709.38;;;14.34;59.48
48848;BME280;75039;51.970;5.660;2023-12-29T10:25:49;100697.31;;;14.38;59.54
48848;BME280;75039;51.970;5.660;2023-12-29T10:28:16;100693.03;;;14.36;59.63
48848;BME280;75039;51.970;5.660;2023-12-29T10:30:45;100707.53;;;14.35;59.75
48848;BME280;75039;51.970;5.660;2023-12-29T10:33:19;100689.59;;;14.34;59.77
48848;BME280;75039;51.970;5.660;2023-12-29T10:35:58;100685.19;;;14.32;59.47
48848;BME280;75039;51.970;5.660;2023-12-29T10:38:34;100693.03;;;14.36;59.29
48848;BME280;75039;51.970;5.660;2023-12-29T10:41:20;100694.00;;;14.35;59.66
48848;BME280;75039;51.970;5.660;2023-12-29T10:43:49;100696.59;;;14.36;59.41
48848;BME280;75039;51.970;5.660;2023-12-29T10:46:19;100702.84;;;14.37;59.23
48848;BME280;75039;51.970;5.660;2023-12-29T10:48:47;100703.69;;;14.37;59.53
48848;BME280;75039;51.970;5.660;2023-12-29T10:51:15;100705.28;;;14.40;59.59
48848;BME280;75039;51.970;5.660;2023-12-29T10:53:41;100706.88;;;14.42;59.53
48848;BME280;75039;51.970;5.660;2023-12-29T10:56:18;100705.75;;;14.45;59.66
48848;BME280;75039;51.970;5.660;2023-12-29T10:58:57;100709.03;;;14.48;59.49
48848;BME280;75039;51.970;5.660;2023-12-29T11:01:24;100719.69;;;14.50;59.52
48848;BME280;75039;51.970;5.660;2023-12-29T11:04:02;100712.44;;;14.50;59.28
48848;BME280;75039;51.970;5.660;2023-12-29T11:06:40;100718.56;;;14.52;59.14
48848;BME280;75039;51.970;5.660;2023-12-29T11:09:07;100720.28;;;14.53;59.48
48848;BME280;75039;51.970;5.660;2023-12-29T11:11:36;100715.59;;;14.55;59.31
48848;BME280;75039;51.970;5.660;2023-12-29T11:14:04;100707.47;;;14.55;59.06
48848;BME280;75039;51.970;5.660;2023-12-29T11:16:31;100714.59;;;14.56;59.26
48848;BME280;75039;51.970;5.660;2023-12-29T11:19:01;100721.72;;;14.57;59.06
48848;BME280;75039;51.970;5.660;2023-12-29T11:21:30;100721.44;;;14.60;58.71
48848;BME280;75039;51.970;5.660;2023-12-29T11:23:58;100722.28;;;14.61;59.00
48848;BME280;75039;51.970;5.660;2023-12-29T11:26:25;100712.06;;;14.65;59.04
48848;BME280;75039;51.970;5.660;2023-12-29T11:28:54;100721.03;;;14.65;58.62
48848;BME280;75039;51.970;5.660;2023-12-29T11:31:21;100718.19;;;14.67;58.72
48848;BME280;75039;51.970;5.660;2023-12-29T11:34:00;100714.47;;;14.68;58.55
48848;BME280;75039;51.970;5.660;2023-12-29T11:36:34;100705.38;;;14.69;58.41
48848;BME280;75039;51.970;5.660;2023-12-29T11:43:59;100719.63;;;14.71;58.31
48848;BME280;75039;51.970;5.660;2023-12-29T11:46:37;100720.59;;;14.70;58.10
48848;BME280;75039;51.970;5.660;2023-12-29T11:49:04;100715.06;;;14.71;57.93
48848;BME280;75039;51.970;5.660;2023-12-29T11:51:35;100710.50;;;14.72;58.33
48848;BME280;75039;51.970;5.660;2023-12-29T11:54:03;100705.81;;;14.74;58.15
48848;BME280;75039;51.970;5.660;2023-12-29T11:56:38;100696.00;;;14.73;58.03
48848;BME280;75039;51.970;5.660;2023-12-29T11:59:34;100697.84;;;14.72;58.20
48848;BME280;75039;51.970;5.660;2023-12-29T12:02:27;100699.41;;;14.75;58.15
48848;BME280;75039;51.970;5.660;2023-12-29T12:04:54;100695.59;;;14.77;57.98
48848;BME280;75039;51.970;5.660;2023-12-29T12:09:50;100708.97;;;14.79;58.14
48848;BME280;75039;51.970;5.660;2023-12-29T12:12:41;100711.94;;;14.76;58.14
48848;BME280;75039;51.970;5.660;2023-12-29T12:17:54;100707.09;;;14.79;57.91
48848;BME280;75039;51.970;5.660;2023-12-29T12:20:21;100706.13;;;14.80;57.81
48848;BME280;75039;51.970;5.660;2023-12-29T12:22:53;100696.28;;;14.79;57.80
48848;BME280;75039;51.970;5.660;2023-12-29T12:25:27;100699.84;;;14.80;57.52
48848;BME280;75039;51.970;5.660;2023-12-29T12:27:57;100701.56;;;14.81;58.03
48848;BME280;75039;51.970;5.660;2023-12-29T12:30:24;100698.84;;;14.81;57.61
48848;BME280;75039;51.970;5.660;2023-12-29T12:32:57;100692.59;;;14.80;57.62
48848;BME280;75039;51.970;5.660;2023-12-29T12:35:25;100700.44;;;14.83;57.53
48848;BME280;75039;51.970;5.660;2023-12-29T12:38:10;100694.16;;;14.83;57.80
48848;BME280;75039;51.970;5.660;2023-12-29T12:40:39;100695.72;;;14.85;57.84
48848;BME280;75039;51.970;5.660;2023-12-29T12:43:06;100692.19;;;14.85;57.54
48848;BME280;75039;51.970;5.660;2023-12-29T12:45:40;100685.91;;;14.84;57.92
48848;BME280;75039;51.970;5.660;2023-12-29T12:48:22;100678.78;;;14.83;57.90
48848;BME280;75039;51.970;5.660;2023-12-29T12:50:50;100677.94;;;14.83;57.46
48848;BME280;75039;51.970;5.660;2023-12-29T12:53:18;100673.53;;;14.82;57.87
48848;BME280;75039;51.970;5.660;2023-12-29T12:55:49;100671.81;;;14.81;57.70
48848;BME280;75039;51.970;5.660;2023-12-29T12:58:19;100668.28;;;14.80;57.36
48848;BME280;75039;51.970;5.660;2023-12-29T13:00:50;100681.78;;;14.80;57.47
48848;BME280;75039;51.970;5.660;2023-12-29T13:03:20;100686.34;;;14.80;57.52
48848;BME280;75039;51.970;5.660;2023-12-29T13:05:48;100688.31;;;14.78;57.89
48848;BME280;75039;51.970;5.660;2023-12-29T13:08:16;100681.22;;;14.77;57.77
48848;BME280;75039;51.970;5.660;2023-12-29T13:11:00;100672.97;;;14.78;57.77
48848;BME280;75039;51.970;5.660;2023-12-29T13:13:37;100668.53;;;14.77;57.84
48848;BME280;75039;51.970;5.660;2023-12-29T13:16:04;100663.00;;;14.79;57.77